Time;durP1;ratioP1;P1;durP2;ratioP2;P2;SDS_P1;SDS_P2;PMS_P1;PMS_P2;Temp;Humidity;BMP_temperature;BMP_pressure;BME280_temperature;BME280_humidity;BME280_pressure;Samples;Min_cycle;Max_cycle;Signal;HPM_P1;HPM_P2
2023/03/14 00:00:37;;;;;;;11.07;2.00;;;;;;;13.81;61.38;98906.91;5002293;28;20102;-41
2023/03/14 00:03:02;;;;;;;11.02;2.00;;;;;;;13.78;61.35;98910.47;4999126;28;20121;-42
2023/03/14 00:05:28;;;;;;;15.07;2.40;;;;;;;13.67;61.38;98902.06;5005135;28;20049;-42
2023/03/14 00:07:53;;;;;;;11.63;2.20;;;;;;;13.76;61.42;98914.03;5002202;28;20109;-43
2023/03/14 00:10:19;;;;;;;11.85;1.83;;;;;;;13.71;61.50;98889.75;4999044;28;20030;-40
2023/03/14 00:12:44;;;;;;;10.27;2.25;;;;;;;13.81;61.40;98886.81;5002116;28;20496;-40
2023/03/14 00:15:11;;;;;;;11.35;2.08;;;;;;;13.71;61.30;98880.16;4998751;28;20267;-44
2023/03/14 00:17:37;;;;;;;11.90;1.92;;;;;;;13.81;61.25;98897.28;5002158;28;20026;-43
2023/03/14 00:20:08;;;;;;;8.63;1.98;;;;;;;13.97;60.82;98895.03;5002110;28;20044;-39
2023/03/14 00:22:37;;;;;;;10.93;2.05;;;;;;;13.68;61.76;98908.16;4998406;28;20057;-39
2023/03/14 00:25:04;;;;;;;13.85;2.58;;;;;;;13.67;61.98;98907.31;4998205;28;20026;-37
2023/03/14 00:27:29;;;;;;;18.42;2.80;;;;;;;13.98;61.46;98901.97;5002649;28;20571;-41
2023/03/14 00:29:55;;;;;;;10.60;1.90;;;;;;;13.60;62.65;98902.34;5002474;28;20120;-40
2023/03/14 00:32:20;;;;;;;15.35;2.40;;;;;;;13.51;63.74;98905.22;4997608;28;20038;-41
2023/03/14 00:34:45;;;;;;;11.35;2.20;;;;;;;13.42;63.74;98892.41;5002450;28;20331;-40
2023/03/14 00:37:10;;;;;;;17.55;2.42;;;;;;;13.63;63.40;98908.31;4998353;28;20030;-40
2023/03/14 00:39:36;;;;;;;14.93;2.28;;;;;;;13.75;63.45;98894.84;5001825;28;20069;-41
2023/03/14 00:42:01;;;;;;;13.70;2.17;;;;;;;13.02;66.00;98911.81;5002166;28;20117;-41
2023/03/14 00:44:27;;;;;;;14.35;2.53;;;;;;;13.54;64.45;98910.38;4998084;28;20112;-42
2023/03/14 00:46:52;;;;;;;13.02;2.40;;;;;;;13.40;64.99;98909.00;5002870;28;20041;-41
2023/03/14 00:49:18;;;;;;;12.98;2.45;;;;;;;13.25;65.48;98909.44;4999313;28;20029;-45
2023/03/14 00:51:43;;;;;;;17.30;2.65;;;;;;;13.24;65.76;98915.56;5002341;28;20026;-42
2023/03/14 00:54:08;;;;;;;17.83;2.40;;;;;;;13.32;65.44;98920.59;4998069;28;20073;-40
2023/03/14 00:56:34;;;;;;;16.27;2.70;;;;;;;13.05;66.53;98916.97;5001535;28;20456;-40
2023/03/14 00:58:59;;;;;;;17.60;2.33;;;;;;;13.37;65.99;98918.69;5002287;28;20125;-40
2023/03/14 01:01:24;;;;;;;18.70;2.60;;;;;;;12.92;67.07;98926.06;4998035;28;20037;-40
2023/03/14 01:03:54;;;;;;;20.45;2.67;;;;;;;13.40;66.23;98922.09;5001972;28;20040;-42
2023/03/14 01:06:23;;;;;;;12.73;2.42;;;;;;;13.36;65.90;98936.16;4999350;28;20104;-41
2023/03/14 01:08:49;;;;;;;17.23;3.28;;;;;;;13.17;66.57;98921.91;5002828;28;20116;-41
2023/03/14 01:11:29;;;;;;;18.20;2.60;;;;;;;13.22;66.21;98913.91;4998339;28;20447;-42
2023/03/14 01:13:55;;;;;;;20.27;2.92;;;;;;;13.09;66.87;98913.38;5005002;28;20041;-40
2023/03/14 01:16:23;;;;;;;18.58;2.53;;;;;;;13.17;66.91;98905.34;5003455;28;20026;-41
2023/03/14 01:18:49;;;;;;;22.40;2.63;;;;;;;13.17;66.56;98898.34;5004573;28;20038;-41
2023/03/14 01:21:21;;;;;;;16.02;2.42;;;;;;;13.22;66.49;98888.63;5002134;28;20037;-40
2023/03/14 01:23:48;;;;;;;17.17;2.25;;;;;;;13.42;65.74;98877.53;5007136;28;20093;-45
2023/03/14 01:26:16;;;;;;;11.95;2.17;;;;;;;12.98;66.88;98886.66;5002987;28;20044;-41
2023/03/14 01:28:41;;;;;;;14.60;2.30;;;;;;;13.66;64.97;98886.44;5004251;28;20026;-42
2023/03/14 01:31:09;;;;;;;17.67;2.47;;;;;;;13.25;65.83;98895.50;5000079;28;20041;-40
2023/03/14 01:33:35;;;;;;;14.05;2.25;;;;;;;13.17;66.40;98905.34;5004401;28;20045;-41
2023/03/14 01:36:02;;;;;;;17.30;2.20;;;;;;;13.48;65.55;98908.75;5006565;28;20030;-42
2023/03/14 01:38:31;;;;;;;13.15;1.80;;;;;;;13.51;65.32;98903.44;5002716;28;20086;-40
2023/03/14 01:40:57;;;;;;;15.10;2.15;;;;;;;13.66;64.96;98916.06;5005458;28;20117;-39
2023/03/14 01:43:24;;;;;;;12.70;2.20;;;;;;;13.66;64.89;98915.25;4997795;28;20129;-41
2023/03/14 01:46:08;;;;;;;12.80;2.30;;;;;;;13.26;65.95;98907.69;5000633;28;20056;-41
2023/03/14 01:49:00;;;;;;;12.30;1.90;;;;;;;12.96;67.08;98914.59;4997572;28;20242;-41
2023/03/14 01:51:36;;;;;;;9.82;1.88;;;;;;;13.00;66.81;98901.38;4997600;28;20114;-41
2023/03/14 01:54:21;;;;;;;14.52;2.10;;;;;;;13.05;66.28;98901.28;5002293;28;20100;-42
2023/03/14 01:56:56;;;;;;;12.27;2.08;;;;;;;13.09;65.75;98879.38;4997353;28;20033;-41
2023/03/14 01:59:21;;;;;;;13.23;2.00;;;;;;;13.68;64.99;98885.47;4997989;28;20404;-41
2023/03/14 02:01:49;;;;;;;12.15;2.00;;;;;;;13.31;66.07;98884.84;5001891;28;20041;-43
2023/03/14 02:04:17;;;;;;;16.40;2.30;;;;;;;13.49;65.27;98879.06;4998020;28;20037;-40
2023/03/14 02:06:49;;;;;;;11.27;2.08;;;;;;;13.18;65.43;98886.09;5001031;28;20091;-41
2023/03/14 02:09:15;;;;;;;10.75;1.85;;;;;;;13.33;65.05;98868.22;4997136;28;20030;-42
2023/03/14 02:11:40;;;;;;;13.18;2.22;;;;;;;13.37;65.48;98867.22;5023121;23;20048;-44
2023/03/14 02:14:09;;;;;;;16.42;2.08;;;;;;;13.44;65.74;98865.28;4998441;28;20040;-43
2023/03/14 02:16:35;;;;;;;12.85;2.30;;;;;;;13.43;65.13;98873.16;5002506;28;20087;-44
2023/03/14 02:19:01;;;;;;;12.68;2.08;;;;;;;13.36;65.31;98868.09;5002827;28;20065;-43
2023/03/14 02:21:39;;;;;;;11.65;1.80;;;;;;;13.57;65.21;98856.16;4998419;28;20394;-43
2023/03/14 02:24:32;;;;;;;11.13;2.33;;;;;;;13.07;66.36;98855.00;4997608;28;20403;-42
2023/03/14 02:27:04;;;;;;;15.20;2.10;;;;;;;13.25;65.88;98869.31;5002243;28;20037;-45
2023/03/14 02:29:33;;;;;;;12.50;2.30;;;;;;;13.01;66.62;98866.50;4999236;28;20037;-44
2023/03/14 02:31:58;;;;;;;12.15;1.95;;;;;;;13.29;65.59;98869.22;5004357;28;20041;-43
2023/03/14 02:34:25;;;;;;;9.23;1.90;;;;;;;13.96;63.63;98867.13;5002169;28;20032;-42
2023/03/14 02:36:50;;;;;;;10.88;2.08;;;;;;;13.76;64.10;98865.16;5006303;28;20038;-42
2023/03/14 02:39:26;;;;;;;12.25;2.30;;;;;;;13.40;65.09;98861.91;5003197;28;20044;-43
2023/03/14 02:41:51;;;;;;;12.25;2.40;;;;;;;13.56;64.38;98870.13;5007481;28;20037;-42
2023/03/14 02:44:16;;;;;;;14.18;2.40;;;;;;;13.04;66.44;98869.94;5003005;28;20396;-47
2023/03/14 02:46:42;;;;;;;13.32;2.47;;;;;;;13.35;65.77;98850.72;5006066;28;20026;-44
2023/03/14 02:49:12;;;;;;;13.27;2.30;;;;;;;13.56;65.01;98853.56;5000651;28;20030;-48
2023/03/14 02:51:39;;;;;;;10.88;2.17;;;;;;;13.76;64.08;98854.66;5005605;28;20428;-45
2023/03/14 02:54:05;;;;;;;10.63;2.00;;;;;;;13.72;64.46;98847.78;5005437;28;20060;-43
2023/03/14 02:56:30;;;;;;;12.52;2.08;;;;;;;13.50;64.70;98852.00;5002879;28;20280;-42
2023/03/14 02:58:57;;;;;;;14.38;2.60;;;;;;;13.65;64.04;98842.81;5005356;28;20030;-44
2023/03/14 03:01:22;;;;;;;9.35;2.15;;;;;;;13.38;65.33;98844.50;5002250;28;20053;-44
2023/03/14 03:03:48;;;;;;;12.93;2.60;;;;;;;12.98;66.40;98845.66;5006165;28;20030;-53
2023/03/14 03:06:13;;;;;;;11.60;2.70;;;;;;;13.10;66.40;98840.97;5002636;28;20492;-43
2023/03/14 03:08:39;;;;;;;10.60;2.35;;;;;;;13.06;66.25;98839.34;5006216;28;20061;-43
2023/03/14 03:11:04;;;;;;;14.40;2.40;;;;;;;13.12;66.16;98837.44;5001921;28;20034;-44
2023/03/14 03:13:30;;;;;;;9.57;2.17;;;;;;;12.93;67.00;98841.44;5006474;28;20120;-46
2023/03/14 03:15:55;;;;;;;10.50;2.53;;;;;;;13.32;65.86;98837.72;5007568;28;20037;-42
2023/03/14 03:18:20;;;;;;;12.75;2.90;;;;;;;13.36;65.63;98841.94;5005016;28;20116;-45
2023/03/14 03:20:46;;;;;;;16.13;2.90;;;;;;;13.42;65.14;98829.59;5011890;28;20038;-44
2023/03/14 03:23:11;;;;;;;16.30;2.75;;;;;;;13.54;64.86;98830.03;5008631;28;20030;-44
2023/03/14 03:25:37;;;;;;;12.02;2.45;;;;;;;13.50;64.46;98822.34;5005563;28;20036;-44
2023/03/14 03:28:07;;;;;;;11.57;2.45;;;;;;;12.94;66.76;98838.78;5002418;28;20517;-50
2023/03/14 03:30:33;;;;;;;10.88;2.50;;;;;;;13.43;65.65;98820.81;5004634;28;20492;-44
2023/03/14 03:32:58;;;;;;;10.75;2.50;;;;;;;13.54;65.16;98830.03;5004921;28;20084;-43
2023/03/14 03:35:23;;;;;;;11.55;2.47;;;;;;;13.27;65.52;98837.00;5001700;28;24653;-43
2023/03/14 03:37:48;;;;;;;11.23;2.65;;;;;;;13.67;64.47;98831.38;5004903;28;20376;-42
2023/03/14 03:40:14;;;;;;;15.38;2.78;;;;;;;13.37;64.89;98832.31;5000806;28;20069;-44
2023/03/14 03:42:39;;;;;;;12.77;2.60;;;;;;;13.47;64.67;98828.53;5004891;28;20673;-48
2023/03/14 03:45:06;;;;;;;10.57;2.22;;;;;;;13.42;65.17;98833.03;5001638;28;20449;-48
2023/03/14 03:47:31;;;;;;;11.20;2.53;;;;;;;13.52;64.90;98831.00;5006067;28;20121;-43
2023/03/14 03:49:57;;;;;;;10.85;2.50;;;;;;;13.68;64.76;98827.00;5007007;28;20081;-44
2023/03/14 03:52:22;;;;;;;14.18;2.83;;;;;;;13.23;65.93;98826.69;5003221;28;20060;-43
2023/03/14 03:54:47;;;;;;;8.60;2.67;;;;;;;13.26;66.69;98811.72;5005753;28;20124;-42
2023/03/14 03:57:13;;;;;;;12.23;2.80;;;;;;;13.38;66.42;98824.44;5001481;28;20030;-42
2023/03/14 03:59:39;;;;;;;11.07;2.60;;;;;;;13.24;66.98;98834.44;5004470;28;20400;-43
2023/03/14 04:02:05;;;;;;;13.70;2.40;;;;;;;13.11;67.66;98830.47;5000196;28;20026;-43
2023/03/14 04:04:30;;;;;;;10.23;2.22;;;;;;;13.21;68.80;98833.69;5004562;28;20030;-42
2023/03/14 04:06:56;;;;;;;10.75;2.40;;;;;;;12.40;71.78;98835.06;5009296;28;20488;-43
2023/03/14 04:09:21;;;;;;;9.32;2.10;;;;;;;12.98;70.79;98834.34;5010911;28;20101;-43
2023/03/14 04:11:46;;;;;;;12.82;2.30;;;;;;;12.92;71.37;98839.75;5006841;28;20064;-42
2023/03/14 04:14:11;;;;;;;8.68;2.33;;;;;;;12.45;72.35;98847.13;5001230;28;20030;-43
2023/03/14 04:16:37;;;;;;;9.20;2.30;;;;;;;12.31;74.08;98835.34;5004723;28;20048;-42
2023/03/14 04:19:02;;;;;;;12.73;2.40;;;;;;;12.46;73.83;98842.75;5000658;28;20117;-45
2023/03/14 04:21:28;;;;;;;11.40;1.90;;;;;;;12.77;72.39;98835.78;5003294;28;20535;-44
2023/03/14 04:23:53;;;;;;;9.57;2.03;;;;;;;12.76;72.72;98841.91;5003286;28;20088;-46
2023/03/14 04:26:19;;;;;;;9.75;2.05;;;;;;;12.69;73.01;98837.75;5001485;28;20034;-43
2023/03/14 04:28:44;;;;;;;10.50;1.98;;;;;;;12.63;73.42;98837.06;5004304;28;20040;-44
2023/03/14 04:31:11;;;;;;;10.90;2.10;;;;;;;12.16;75.09;98840.03;4999364;28;20033;-44
2023/03/14 04:33:37;;;;;;;8.65;2.17;;;;;;;12.57;74.11;98835.47;5003281;28;20022;-43
2023/03/14 04:36:03;;;;;;;9.55;2.03;;;;;;;12.53;74.40;98841.69;5000404;28;20084;-44
2023/03/14 04:38:29;;;;;;;15.18;2.30;;;;;;;12.47;74.66;98839.25;5002841;28;20021;-42
2023/03/14 04:40:54;;;;;;;11.00;2.25;;;;;;;12.59;73.35;98829.31;5001785;28;20520;-43
2023/03/14 04:43:19;;;;;;;8.18;2.10;;;;;;;12.77;73.46;98827.09;4999677;28;20036;-43
2023/03/14 04:45:45;;;;;;;10.75;2.10;;;;;;;12.69;73.76;98816.84;5003711;28;20389;-44
2023/03/14 04:48:10;;;;;;;12.32;2.15;;;;;;;12.79;74.10;98823.56;4999605;28;20475;-45
2023/03/14 04:50:35;;;;;;;9.82;2.00;;;;;;;12.43;75.13;98821.94;5002924;28;20057;-42
2023/03/14 04:53:01;;;;;;;8.18;2.05;;;;;;;12.89;74.31;98824.13;5003210;28;20436;-43
2023/03/14 04:55:26;;;;;;;10.32;2.42;;;;;;;12.33;76.42;98812.63;4998955;28;20121;-44
2023/03/14 04:57:52;;;;;;;7.05;2.20;;;;;;;12.94;73.94;98815.25;5002564;28;20072;-42
2023/03/14 05:00:18;;;;;;;9.30;2.50;;;;;;;12.55;75.28;98817.25;4999529;28;20041;-42
2023/03/14 05:02:44;;;;;;;8.93;2.40;;;;;;;12.88;74.43;98807.59;5003640;28;20400;-45
2023/03/14 05:05:10;;;;;;;9.63;2.70;;;;;;;12.85;74.71;98812.06;5003739;28;20030;-44
2023/03/14 05:07:35;;;;;;;9.07;2.50;;;;;;;12.94;74.10;98817.00;5011169;28;20057;-47
2023/03/14 05:10:01;;;;;;;9.25;2.60;;;;;;;12.73;74.73;98823.72;5005563;28;20447;-43
2023/03/14 05:12:26;;;;;;;10.15;2.83;;;;;;;12.41;76.22;98821.13;4999892;28;20404;-43
2023/03/14 05:14:51;;;;;;;9.88;2.88;;;;;;;12.21;76.96;98821.63;5003517;28;20025;-44
2023/03/14 05:17:18;;;;;;;9.48;3.00;;;;;;;12.12;77.89;98824.50;4999507;28;20065;-42
2023/03/14 05:19:44;;;;;;;8.98;3.20;;;;;;;12.06;77.61;98822.03;5003070;28;20034;-44
2023/03/14 05:22:10;;;;;;;7.57;2.90;;;;;;;12.39;76.79;98835.97;5000462;28;20088;-40
2023/03/14 05:24:35;;;;;;;6.38;2.90;;;;;;;12.04;78.18;98857.78;5003634;28;20034;-46
2023/03/14 05:27:01;;;;;;;8.13;2.45;;;;;;;11.16;78.80;98865.00;5005658;28;20507;-42
2023/03/14 05:29:26;;;;;;;7.07;1.90;;;;;;;11.29;78.06;98872.50;5001038;28;20033;-43
2023/03/14 05:31:51;;;;;;;7.22;1.50;;;;;;;11.14;76.62;98888.50;5004901;28;21598;-42
2023/03/14 05:34:17;;;;;;;9.95;1.35;;;;;;;10.96;76.95;98904.50;5002213;28;20022;-44
2023/03/14 05:36:42;;;;;;;5.93;1.17;;;;;;;10.84;76.64;98910.81;5008540;28;20076;-42
2023/03/14 05:39:07;;;;;;;4.65;1.00;;;;;;;10.70;77.20;98918.03;5005766;28;20053;-42
2023/03/14 05:41:33;;;;;;;4.57;0.80;;;;;;;10.46;77.59;98932.34;5008668;28;20404;-51
2023/03/14 05:43:58;;;;;;;8.07;1.05;;;;;;;10.64;77.31;98936.38;5007423;28;20034;-44
2023/03/14 05:46:23;;;;;;;5.57;1.05;;;;;;;10.64;76.94;98936.38;5002661;28;20077;-42
2023/03/14 05:48:49;;;;;;;4.25;0.95;;;;;;;10.54;77.52;98947.88;5007463;28;20038;-42
2023/03/14 05:51:14;;;;;;;5.47;1.17;;;;;;;10.82;76.76;98945.63;5003325;28;20489;-43
2023/03/14 05:53:39;;;;;;;5.65;0.98;;;;;;;10.51;77.66;98955.72;5002721;28;20045;-43
2023/03/14 05:56:05;;;;;;;6.28;1.00;;;;;;;10.66;76.75;98963.28;4999113;28;20037;-51
2023/03/14 05:58:30;;;;;;;9.13;1.20;;;;;;;10.59;77.22;98964.28;5002860;28;20512;-44
2023/03/14 06:00:56;;;;;;;7.13;1.15;;;;;;;10.67;77.25;98978.03;5002152;28;20112;-42
2023/03/14 06:03:21;;;;;;;5.28;1.08;;;;;;;10.65;77.13;98972.00;4999200;28;20044;-43
2023/03/14 06:05:50;;;;;;;8.20;1.23;;;;;;;10.79;76.31;98985.66;5002766;28;20037;-42
2023/03/14 06:08:16;;;;;;;6.82;0.88;;;;;;;10.73;77.22;98983.16;5002586;28;20402;-43
2023/03/14 06:10:41;;;;;;;6.03;0.95;;;;;;;10.88;76.22;98988.06;5007812;28;20213;-42
2023/03/14 06:13:07;;;;;;;12.88;5.53;;;;;;;10.62;76.63;98992.00;5003293;28;20034;-43
2023/03/14 06:15:32;;;;;;;9.20;1.25;;;;;;;10.67;76.81;98998.03;5007426;28;20026;-42
2023/03/14 06:17:58;;;;;;;7.10;0.90;;;;;;;10.60;76.84;99009.44;5005732;28;20119;-42
2023/03/14 06:20:23;;;;;;;9.65;1.20;;;;;;;10.83;76.74;99002.09;5003823;28;20040;-43
2023/03/14 06:22:49;;;;;;;5.88;0.90;;;;;;;10.74;76.75;99010.91;5005824;28;20454;-45
2023/03/14 06:25:14;;;;;;;7.85;0.88;;;;;;;10.49;77.46;99022.66;5003267;28;20033;-44
2023/03/14 06:27:40;;;;;;;5.45;0.80;;;;;;;10.43;76.97;99025.34;5006343;28;20034;-42
2023/03/14 06:30:06;;;;;;;4.28;0.80;;;;;;;9.88;78.49;99033.06;5004852;28;20507;-43
2023/03/14 06:32:31;;;;;;;3.55;0.70;;;;;;;10.02;77.57;99037.16;5006256;28;20081;-46
2023/03/14 06:35:00;;;;;;;5.13;0.98;;;;;;;10.00;77.53;99054.53;5006328;28;20026;-43
2023/03/14 06:37:26;;;;;;;4.45;0.90;;;;;;;10.21;76.91;99061.25;5003078;28;20034;-44
2023/03/14 06:39:51;;;;;;;4.13;0.60;;;;;;;10.11;77.76;99067.44;5005888;28;20488;-46
2023/03/14 06:42:17;;;;;;;5.82;1.08;;;;;;;10.21;76.70;99078.63;5003153;28;20088;-42
2023/03/14 06:44:42;;;;;;;6.97;1.05;;;;;;;10.26;76.60;99077.66;5008828;28;20519;-44
2023/03/14 06:47:07;;;;;;;8.68;1.10;;;;;;;10.36;75.94;99088.84;5005988;28;20038;-42
2023/03/14 06:49:33;;;;;;;10.35;1.55;;;;;;;10.13;76.60;99097.75;5010934;28;20030;-50
2023/03/14 06:51:58;;;;;;;5.63;1.25;;;;;;;10.41;76.08;99102.66;5012795;28;20029;-47
2023/03/14 06:54:23;;;;;;;9.52;1.10;;;;;;;10.26;76.21;99110.66;5007341;28;20451;-45
2023/03/14 06:56:48;;;;;;;5.53;1.00;;;;;;;10.55;75.38;99127.59;5006020;28;20044;-45
2023/03/14 06:59:14;;;;;;;8.00;1.13;;;;;;;10.42;75.63;99139.09;5001831;28;20038;-44
2023/03/14 07:01:40;;;;;;;7.68;1.05;;;;;;;10.69;74.80;99142.19;5005381;28;20036;-42
2023/03/14 07:04:05;;;;;;;10.40;1.20;;;;;;;10.69;74.85;99152.59;5002001;28;20076;-44
2023/03/14 07:06:31;;;;;;;6.15;0.98;;;;;;;10.32;75.21;99160.06;5006271;28;20088;-43
2023/03/14 07:08:56;;;;;;;8.27;1.00;;;;;;;10.24;75.40;99172.34;5005682;28;20030;-45
2023/03/14 07:11:22;;;;;;;8.40;1.10;;;;;;;10.39;74.72;99169.53;5001273;28;20502;-42
2023/03/14 07:13:47;;;;;;;6.47;1.00;;;;;;;10.34;74.81;99173.94;5005841;28;20087;-43
2023/03/14 07:16:13;;;;;;;6.03;1.17;;;;;;;10.25;75.14;99180.13;5001589;28;20435;-43
2023/03/14 07:18:38;;;;;;;8.25;1.05;;;;;;;10.37;74.90;99192.16;5005771;28;20030;-43
2023/03/14 07:21:06;;;;;;;9.65;1.20;;;;;;;10.31;75.38;99205.22;5002151;28;20074;-44
2023/03/14 07:23:31;;;;;;;4.13;1.02;;;;;;;10.79;74.40;99207.22;5005567;28;20042;-44
2023/03/14 07:25:56;;;;;;;6.28;1.30;;;;;;;10.79;74.48;99222.84;5004400;28;20037;-44
2023/03/14 07:28:22;;;;;;;5.57;0.90;;;;;;;10.32;75.66;99233.84;5001066;28;20107;-44
2023/03/14 07:30:48;;;;;;;4.30;0.82;;;;;;;10.02;77.01;99245.44;5005023;28;20038;-46
2023/03/14 07:33:14;;;;;;;5.32;0.90;;;;;;;10.22;76.85;99258.28;5001380;28;20120;-45
2023/03/14 07:35:39;;;;;;;5.07;0.70;;;;;;;9.56;77.89;99272.78;5005017;28;20030;-44
2023/03/14 07:38:05;;;;;;;5.45;0.65;;;;;;;9.48;78.20;99277.19;5001498;28;20030;-42
2023/03/14 07:40:30;;;;;;;3.72;0.60;;;;;;;9.64;76.26;99299.59;5008206;28;20036;-47
2023/03/14 07:42:55;;;;;;;6.38;0.85;;;;;;;9.30;76.47;99319.78;5005482;28;20508;-44
2023/03/14 07:45:21;;;;;;;3.50;0.73;;;;;;;9.43;75.75;99329.25;5008446;28;22604;-44
2023/03/14 07:47:46;;;;;;;6.43;1.00;;;;;;;9.44;75.43;99337.91;5011395;28;20042;-43
2023/03/14 07:50:11;;;;;;;10.45;1.20;;;;;;;9.65;74.30;99351.63;5001877;28;20422;-42
2023/03/14 07:52:37;;;;;;;7.60;1.00;;;;;;;9.57;74.48;99365.56;5005090;28;20120;-48
2023/03/14 07:55:02;;;;;;;8.50;1.00;;;;;;;9.12;74.95;99369.28;5005449;28;20065;-44
2023/03/14 07:57:28;;;;;;;9.85;1.30;;;;;;;8.69;76.22;99385.06;5001979;28;20041;-44
2023/03/14 07:59:53;;;;;;;8.23;1.17;;;;;;;9.21;74.68;99396.09;5002565;28;20049;-46
2023/03/14 08:02:22;;;;;;;4.93;0.90;;;;;;;8.81;75.32;99415.31;5000674;28;20097;-42
2023/03/14 08:04:47;;;;;;;6.40;0.82;;;;;;;9.08;74.62;99414.38;5004419;28;20451;-44
2023/03/14 08:07:13;;;;;;;10.63;1.10;;;;;;;9.35;74.06;99425.50;5000650;28;20080;-44
2023/03/14 08:09:38;;;;;;;6.35;1.02;;;;;;;9.30;73.93;99427.28;5004093;28;20049;-46
2023/03/14 08:12:03;;;;;;;7.95;0.93;;;;;;;8.98;74.26;99436.06;5009643;23;20470;-80
2023/03/14 08:14:35;;;;;;;7.13;1.10;;;;;;;9.14;73.54;99448.16;4989540;28;20033;-79
2023/03/14 08:17:04;;;;;;;9.00;1.20;;;;;;;9.31;73.74;99460.22;5008893;28;20033;-82
2023/03/14 08:19:36;;;;;;;6.53;0.98;;;;;;;9.59;73.22;99481.75;4984773;28;20061;-80
2023/03/14 08:22:01;;;;;;;5.53;1.00;;;;;;;9.06;72.18;99489.78;5006462;28;20030;-81
2023/03/14 08:24:26;;;;;;;5.45;1.00;;;;;;;9.12;72.73;99504.47;5001115;28;20033;-81
2023/03/14 08:26:52;;;;;;;4.97;0.82;;;;;;;8.92;73.33;99531.38;5005626;28;20045;-79
2023/03/14 08:29:17;;;;;;;4.88;0.88;;;;;;;8.19;73.72;99529.59;4999136;28;20052;-79
2023/03/14 08:31:44;;;;;;;4.35;0.90;;;;;;;8.43;70.94;99538.31;4988457;28;20033;-80
2023/03/14 08:34:09;;;;;;;4.85;0.93;;;;;;;8.26;69.78;99536.53;5005529;28;20471;-80
2023/03/14 08:36:41;;;;;;;6.38;1.00;;;;;;;8.41;69.76;99558.25;5009030;28;20034;-79
2023/03/14 08:39:07;;;;;;;7.35;1.10;;;;;;;8.50;69.24;99572.97;4985997;28;20067;-80
2023/03/14 08:41:44;;;;;;;8.52;0.88;;;;;;;8.57;69.25;99584.22;5009131;28;20479;-80
2023/03/14 08:44:13;;;;;;;5.18;1.08;;;;;;;8.90;68.52;99590.28;5003673;28;20561;-78
2023/03/14 08:46:38;;;;;;;4.55;0.90;;;;;;;9.11;68.58;99599.81;5007791;28;20114;-79
2023/03/14 08:49:04;;;;;;;8.52;1.13;;;;;;;9.23;67.48;99604.13;5007166;28;20127;-79
2023/03/14 08:51:29;;;;;;;5.10;0.90;;;;;;;9.36;67.66;99611.91;5002009;28;20096;-80
2023/03/14 08:53:54;;;;;;;7.45;1.20;;;;;;;9.73;67.28;99632.63;4988205;28;20143;-81
2023/03/14 08:56:20;;;;;;;9.32;1.30;;;;;;;9.11;67.73;99635.34;5002318;28;20041;-79
2023/03/14 08:58:51;;;;;;;13.85;1.25;;;;;;;9.77;66.17;99644.75;5007565;28;20029;-81
2023/03/14 09:01:18;;;;;;;10.75;1.30;;;;;;;9.57;67.52;99650.03;5004861;28;20034;-79
2023/03/14 09:03:43;;;;;;;12.25;1.48;;;;;;;9.62;66.48;99658.69;5022954;28;20021;-80
2023/03/14 09:06:10;;;;;;;12.40;1.45;;;;;;;9.39;66.47;99660.47;5019268;28;20030;-81
2023/03/14 09:08:36;;;;;;;9.82;1.70;;;;;;;9.70;64.87;99671.66;5024517;28;20084;-80
2023/03/14 09:11:01;;;;;;;14.85;1.60;;;;;;;10.05;63.07;99671.59;5019841;28;20026;-80
2023/03/14 09:13:30;;;;;;;13.40;1.98;;;;;;;10.13;63.21;99683.69;5006861;28;20044;-80
2023/03/14 09:15:56;;;;;;;14.57;2.30;;;;;;;9.93;63.44;99698.53;5003949;28;20034;-81
2023/03/14 09:18:24;;;;;;;12.02;2.03;;;;;;;10.18;63.44;99698.47;5001088;28;20040;-81
2023/03/14 09:20:56;;;;;;;14.05;2.05;;;;;;;10.09;62.96;99720.16;5008222;28;20045;-79
2023/03/14 09:23:21;;;;;;;16.42;2.08;;;;;;;9.86;63.23;99734.97;5002551;28;20034;-79
2023/03/14 09:25:47;;;;;;;16.05;2.25;;;;;;;9.78;63.80;99748.88;5005012;28;20573;-79
2023/03/14 09:28:27;;;;;;;22.08;2.72;;;;;;;9.36;66.03;99759.31;5002153;28;20061;-79
2023/03/14 09:30:54;;;;;;;12.07;1.90;;;;;;;9.46;67.11;99776.63;5005190;28;20057;-80
2023/03/14 09:33:20;;;;;;;11.00;1.52;;;;;;;9.19;68.60;99794.84;5002156;28;20034;-79
2023/03/14 09:35:45;;;;;;;10.73;1.70;;;;;;;8.92;69.63;99816.41;5002879;28;20302;-79
2023/03/14 09:38:11;;;;;;;15.65;1.65;;;;;;;9.14;69.70;99815.63;5001824;28;20037;-79
2023/03/14 09:40:39;;;;;;;17.52;1.92;;;;;;;9.02;70.26;99823.41;5006752;28;20033;-79
2023/03/14 09:43:05;;;;;;;20.60;2.30;;;;;;;9.13;68.92;99815.63;4999472;28;20057;-80
2023/03/14 09:45:37;;;;;;;13.10;1.77;;;;;;;9.33;67.30;99826.94;5006890;28;20034;-80
2023/03/14 09:48:04;;;;;;;15.48;2.17;;;;;;;9.29;67.20;99827.78;5009532;28;20034;-78
2023/03/14 09:50:52;;;;;;;16.55;2.00;;;;;;;9.56;67.11;99829.56;4998749;28;20053;-78
2023/03/14 09:53:39;;;;;;;20.92;2.42;;;;;;;9.34;67.49;99850.34;4989987;28;20440;-78
2023/03/14 09:56:16;;;;;;;12.68;1.77;;;;;;;9.91;66.10;99853.00;5003614;28;20110;-81
2023/03/14 09:58:45;;;;;;;22.25;2.63;;;;;;;9.81;66.07;99857.34;5005801;28;20034;-80
2023/03/14 10:01:16;;;;;;;18.65;2.30;;;;;;;9.17;66.84;99878.03;4999346;28;20037;-80
2023/03/14 10:04:01;;;;;;;19.85;2.55;;;;;;;9.43;66.55;99892.84;4985056;28;20038;-78
2023/03/14 10:06:29;;;;;;;16.33;2.40;;;;;;;9.34;65.57;99907.56;4989491;28;20030;-80
2023/03/14 10:08:56;;;;;;;19.35;2.53;;;;;;;9.41;65.23;99915.38;5001262;28;20597;-79
2023/03/14 10:11:22;;;;;;;22.63;2.38;;;;;;;9.54;64.03;99918.03;4981210;28;20060;-81
2023/03/14 10:14:08;;;;;;;21.73;2.47;;;;;;;8.72;64.20;99930.69;5002531;28;20076;-79
2023/03/14 10:16:43;;;;;;;22.17;2.60;;;;;;;9.28;63.43;99945.69;4980542;28;20042;-79
2023/03/14 10:19:17;;;;;;;20.20;2.75;;;;;;;8.75;64.62;99961.91;4999445;28;20517;-79
2023/03/14 10:21:55;;;;;;;;;;;;;;;9.28;64.00;99956.94;5002702;28;20080;-78
2023/03/14 10:24:26;;;;;;;19.60;2.10;;;;;;;9.58;61.32;99963.13;4983016;28;19913;-80
2023/03/14 10:26:54;;;;;;;19.00;2.55;;;;;;;9.36;59.91;99978.66;5002122;28;20038;-80
2023/03/14 10:29:25;;;;;;;17.05;2.45;;;;;;;9.56;58.68;99989.16;5000573;28;20042;-80
2023/03/14 10:32:00;;;;;;;21.98;2.47;;;;;;;10.34;57.67;100003.22;4985285;28;20509;-81
2023/03/14 10:34:29;;;;;;;24.73;3.90;;;;;;;9.89;54.96;99996.16;4999566;28;20117;-81
2023/03/14 10:36:57;;;;;;;19.73;2.33;;;;;;;10.27;56.21;100011.88;5018217;28;20064;-80
2023/03/14 10:39:33;;;;;;;19.23;2.45;;;;;;;10.15;54.52;100019.66;5014643;28;20034;-79
2023/03/14 10:42:13;;;;;;;18.88;2.38;;;;;;;10.24;53.81;100021.44;5010126;28;20034;-80
2023/03/14 10:44:39;;;;;;;15.95;2.33;;;;;;;10.28;52.22;100037.06;5004957;28;20030;-80
2023/03/14 10:47:05;;;;;;;21.38;2.50;;;;;;;9.82;55.82;100045.63;4999421;28;20026;-79
2023/03/14 10:49:35;;;;;;;19.90;2.60;;;;;;;9.90;55.37;100057.78;5002266;28;20515;-80
2023/03/14 10:52:13;;;;;;;21.45;2.70;;;;;;;10.03;53.37;100058.69;5004187;28;20033;-80
2023/03/14 10:54:53;;;;;;;18.05;2.65;;;;;;;9.84;55.18;100075.13;5003321;28;20045;-80
2023/03/14 10:57:20;;;;;;;18.23;2.70;;;;;;;10.10;52.31;100076.97;5006913;28;20069;-82
2023/03/14 10:59:45;;;;;;;17.83;2.33;;;;;;;10.80;51.07;100086.59;5010384;28;20034;-81
2023/03/14 11:02:58;;;;;;;21.73;2.55;;;;;;;10.74;53.08;100100.50;5002633;28;20040;-81
2023/03/14 11:05:39;;;;;;;14.85;2.30;;;;;;;10.73;51.10;100104.00;4911007;29;20120;-79
2023/03/14 11:08:25;;;;;;;13.10;2.25;;;;;;;10.20;52.39;100121.28;4923164;29;20172;-80
2023/03/14 11:11:16;;;;;;;14.07;2.20;;;;;;;9.53;52.92;100140.03;4988837;28;20025;-80
2023/03/14 11:14:02;;;;;;;13.52;1.73;;;;;;;9.82;51.43;100148.00;4995241;28;20052;-80
2023/03/14 11:16:52;;;;;;;17.98;2.28;;;;;;;9.96;51.99;100161.97;4973172;28;20092;-78
2023/03/14 11:19:49;;;;;;;18.10;1.98;;;;;;;10.13;50.02;100168.09;5012540;28;20056;-80
2023/03/14 11:22:24;;;;;;;14.05;2.22;;;;;;;10.42;50.62;100173.47;5013196;28;20038;-81
2023/03/14 11:25:14;;;;;;;17.52;1.80;;;;;;;10.35;50.29;100189.06;5003098;28;20045;-79
2023/03/14 11:27:51;;;;;;;13.85;1.80;;;;;;;10.41;50.06;100194.31;5001377;28;20034;-81
2023/03/14 11:30:39;;;;;;;15.30;2.10;;;;;;;10.45;46.78;100202.13;5003019;28;20030;-80
2023/03/14 11:33:21;;;;;;;11.32;1.75;;;;;;;9.94;46.75;100213.16;5003129;28;20033;-79